Whaleyville, MD (21872)

9:01 PM EDT on September 21, 2014 (GMT -0400)
The Cross Residence | Change Station
CLOSE
Current Station
Personal Weather Station
Location: Showell, MD
Elevation: 25 ft
Nearby Weather Stations

Elev 25 ft 38.39 °N, 75.23 °W | Updated 12 seconds ago

Clear
Clear
69.7 °F
Feels Like 69.7 °F
N
0.0
Wind Variable Wind from WSW
Gusts 0.0 mph

Today
High -- | Low -- °F
--% Chance of Precip.
Yesterday
High -- | Low -- °F
Precip. -- in
6:48 AM 6:59 PM
Waning Crescent, 5% visible
Pressure 29.70 in
Visibility 10.0 miles
Clouds Clear
Dew Point 67 °F
Humidity 91%
Rainfall 0.00 in
Snow Depth Not available.
UV 0 out of 12
Pollen 3.80 out of 12
Air Quality Not available.
Flu Activity Not available.
METAR KOXB 220053Z AUTO 25003KT 10SM CLR 22/18 A2970 RMK AO2 SLP058 T02170183 TSNO

More Conditions Fewer Conditions

Pressure 29.70 in
Visibility 10.0 miles
Clouds Clear
Dew Point 67 °F
Humidity 91%
Rainfall 0.00 in
Snow Depth Not available.
UV 0 out of 12
Pollen 3.80 out of 12
Air Quality Not available.
Flu Activity Not available.
METAR KOXB 220053Z AUTO 25003KT 10SM CLR 22/18 A2970 RMK AO2 SLP058 T02170183 TSNO

More Conditions Fewer Conditions

10-Day Weather Forecast

Almanac

Astronomy

Sep. 21, 2014 Rise Set
Actual Time 6:48 AM EDT 6:59 PM EDT
Civil Twilight 6:21 AM EDT 7:26 PM EDT
Nautical Twilight 5:50 AM EDT 7:57 PM EDT
Astronomical Twilight 5:19 AM EDT 8:28 PM EDT
Moon 4:21 AM EDT (9/21) 5:33 PM EDT (9/21)
Length of Visible Light 13h 04m
Length of Day
12h 11m
Tomorrow will be 2m 28s shorter.
Waning Crescent, 5% of the Moon is Illuminated
Today
Waning Crescent
Sep 24
New
Oct 1
First Quarter
Oct 8
Full
Oct 15
Last Quarter

Today's Extremes

State Highs State Lows

Community

WunderPhotos

Upload Photos

1,755,324 photos uploaded!

WunderBlogs® & News

Nearby

Snow Depth

Station Depth Elevation
No new snow has been reported.

Earthquake Activity

City Distance Mag. Time & Date
No recent earthquake activity has been reported nearby.
Minimum magnitude displayed is 2.5.

Coastal Water Temperatures

Place Temperature
Ocean City Inlet, MD 72.0 °F
Wachapreague, VA 75.0 °F
Lewes, DE 72.0 °F
Cape May, NJ 75.9 °F
Bishops Head, MD 73.9 °F

Nearby Weather Stations